sensor_id;sensor_type;location;lat;lon;timestamp;P1;durP1;ratioP1;P2;durP2;ratioP2
63653;SDS011;49809;47.418;19.080;2024-03-06T00:01:05;36.85;;;15.30;;
63653;SDS011;49809;47.418;19.080;2024-03-06T00:04:10;34.08;;;14.95;;
63653;SDS011;49809;47.418;19.080;2024-03-06T00:07:16;34.93;;;15.40;;
63653;SDS011;49809;47.418;19.080;2024-03-06T00:10:23;40.42;;;16.00;;
63653;SDS011;49809;47.418;19.080;2024-03-06T00:13:26;36.08;;;15.57;;
63653;SDS011;49809;47.418;19.080;2024-03-06T00:16:31;34.08;;;14.55;;
63653;SDS011;49809;47.418;19.080;2024-03-06T00:19:36;34.17;;;15.52;;
63653;SDS011;49809;47.418;19.080;2024-03-06T00:22:59;33.80;;;15.55;;
63653;SDS011;49809;47.418;19.080;2024-03-06T00:26:27;36.22;;;14.95;;
63653;SDS011;49809;47.418;19.080;2024-03-06T00:29:33;32.97;;;14.90;;
63653;SDS011;49809;47.418;19.080;2024-03-06T00:32:41;31.83;;;15.73;;
63653;SDS011;49809;47.418;19.080;2024-03-06T00:35:47;32.45;;;15.68;;
63653;SDS011;49809;47.418;19.080;2024-03-06T00:39:10;34.83;;;15.38;;
63653;SDS011;49809;47.418;19.080;2024-03-06T00:42:15;31.10;;;14.07;;
63653;SDS011;49809;47.418;19.080;2024-03-06T00:45:39;29.67;;;13.88;;
63653;SDS011;49809;47.418;19.080;2024-03-06T00:48:43;33.50;;;14.85;;
63653;SDS011;49809;47.418;19.080;2024-03-06T00:51:48;32.47;;;14.68;;
63653;SDS011;49809;47.418;19.080;2024-03-06T00:55:25;37.00;;;15.18;;
63653;SDS011;49809;47.418;19.080;2024-03-06T00:58:38;32.47;;;13.68;;
63653;SDS011;49809;47.418;19.080;2024-03-06T01:01:51;33.83;;;14.45;;
63653;SDS011;49809;47.418;19.080;2024-03-06T01:04:59;31.10;;;14.90;;
63653;SDS011;49809;47.418;19.080;2024-03-06T01:08:06;34.75;;;15.43;;
63653;SDS011;49809;47.418;19.080;2024-03-06T01:11:11;31.80;;;14.82;;
63653;SDS011;49809;47.418;19.080;2024-03-06T01:14:17;31.07;;;14.23;;
63653;SDS011;49809;47.418;19.080;2024-03-06T01:17:42;30.10;;;13.68;;
63653;SDS011;49809;47.418;19.080;2024-03-06T01:20:46;31.05;;;14.45;;
63653;SDS011;49809;47.418;19.080;2024-03-06T01:23:50;30.83;;;13.93;;
63653;SDS011;49809;47.418;19.080;2024-03-06T01:26:53;32.53;;;14.45;;
63653;SDS011;49809;47.418;19.080;2024-03-06T01:29:57;32.55;;;14.65;;
63653;SDS011;49809;47.418;19.080;2024-03-06T01:33:02;28.38;;;14.13;;
63653;SDS011;49809;47.418;19.080;2024-03-06T01:36:09;30.52;;;13.90;;
63653;SDS011;49809;47.418;19.080;2024-03-06T01:39:12;34.08;;;13.30;;
63653;SDS011;49809;47.418;19.080;2024-03-06T01:43:02;33.17;;;14.55;;
63653;SDS011;49809;47.418;19.080;2024-03-06T01:46:07;35.55;;;14.63;;
63653;SDS011;49809;47.418;19.080;2024-03-06T01:49:12;33.00;;;13.68;;
63653;SDS011;49809;47.418;19.080;2024-03-06T01:52:21;32.13;;;13.20;;
63653;SDS011;49809;47.418;19.080;2024-03-06T01:55:26;31.12;;;13.38;;
63653;SDS011;49809;47.418;19.080;2024-03-06T01:58:30;30.10;;;14.57;;
63653;SDS011;49809;47.418;19.080;2024-03-06T02:01:35;30.05;;;13.73;;
63653;SDS011;49809;47.418;19.080;2024-03-06T02:04:45;31.05;;;14.95;;
63653;SDS011;49809;47.418;19.080;2024-03-06T02:08:09;30.88;;;13.38;;
63653;SDS011;49809;47.418;19.080;2024-03-06T02:11:34;33.92;;;14.18;;
63653;SDS011;49809;47.418;19.080;2024-03-06T02:14:42;34.63;;;14.77;;
63653;SDS011;49809;47.418;19.080;2024-03-06T02:17:46;31.85;;;14.02;;
63653;SDS011;49809;47.418;19.080;2024-03-06T02:20:50;33.53;;;13.38;;
63653;SDS011;49809;47.418;19.080;2024-03-06T02:23:57;28.67;;;13.93;;
63653;SDS011;49809;47.418;19.080;2024-03-06T02:27:00;31.45;;;14.10;;
63653;SDS011;49809;47.418;19.080;2024-03-06T02:30:04;30.73;;;14.65;;
63653;SDS011;49809;47.418;19.080;2024-03-06T02:33:09;34.58;;;14.82;;
63653;SDS011;49809;47.418;19.080;2024-03-06T02:36:13;32.97;;;14.50;;
63653;SDS011;49809;47.418;19.080;2024-03-06T02:39:20;33.35;;;14.07;;
63653;SDS011;49809;47.418;19.080;2024-03-06T02:42:27;37.53;;;14.48;;
63653;SDS011;49809;47.418;19.080;2024-03-06T02:45:53;33.97;;;13.82;;
63653;SDS011;49809;47.418;19.080;2024-03-06T02:48:56;38.25;;;15.30;;
63653;SDS011;49809;47.418;19.080;2024-03-06T02:52:19;37.10;;;15.20;;
63653;SDS011;49809;47.418;19.080;2024-03-06T02:55:24;36.97;;;14.70;;
63653;SDS011;49809;47.418;19.080;2024-03-06T03:01:59;31.08;;;12.75;;
63653;SDS011;49809;47.418;19.080;2024-03-06T03:05:03;29.30;;;13.05;;
63653;SDS011;49809;47.418;19.080;2024-03-06T03:08:11;34.88;;;14.40;;
63653;SDS011;49809;47.418;19.080;2024-03-06T03:11:18;34.22;;;14.02;;
63653;SDS011;49809;47.418;19.080;2024-03-06T03:14:21;30.58;;;14.07;;
63653;SDS011;49809;47.418;19.080;2024-03-06T03:17:31;36.78;;;14.63;;
63653;SDS011;49809;47.418;19.080;2024-03-06T03:20:42;32.35;;;14.60;;
63653;SDS011;49809;47.418;19.080;2024-03-06T03:24:04;31.37;;;13.62;;
63653;SDS011;49809;47.418;19.080;2024-03-06T03:27:28;33.30;;;14.23;;
63653;SDS011;49809;47.418;19.080;2024-03-06T03:30:43;32.17;;;13.65;;
63653;SDS011;49809;47.418;19.080;2024-03-06T03:33:48;33.65;;;13.13;;
63653;SDS011;49809;47.418;19.080;2024-03-06T03:36:51;32.47;;;13.98;;
63653;SDS011;49809;47.418;19.080;2024-03-06T03:39:55;30.23;;;13.32;;
63653;SDS011;49809;47.418;19.080;2024-03-06T03:42:59;29.42;;;13.32;;
63653;SDS011;49809;47.418;19.080;2024-03-06T03:46:10;32.47;;;13.62;;
63653;SDS011;49809;47.418;19.080;2024-03-06T03:49:13;30.83;;;14.13;;
63653;SDS011;49809;47.418;19.080;2024-03-06T03:52:40;33.30;;;14.00;;
63653;SDS011;49809;47.418;19.080;2024-03-06T03:56:06;35.28;;;13.43;;
63653;SDS011;49809;47.418;19.080;2024-03-06T04:02:41;27.85;;;13.10;;
63653;SDS011;49809;47.418;19.080;2024-03-06T04:05:46;34.67;;;13.75;;
63653;SDS011;49809;47.418;19.080;2024-03-06T04:09:09;28.75;;;13.10;;
63653;SDS011;49809;47.418;19.080;2024-03-06T04:12:17;33.97;;;13.65;;
63653;SDS011;49809;47.418;19.080;2024-03-06T04:15:21;32.55;;;13.82;;
63653;SDS011;49809;47.418;19.080;2024-03-06T04:18:26;29.83;;;13.13;;
63653;SDS011;49809;47.418;19.080;2024-03-06T04:21:31;30.98;;;13.45;;
63653;SDS011;49809;47.418;19.080;2024-03-06T04:24:35;34.22;;;14.38;;
63653;SDS011;49809;47.418;19.080;2024-03-06T04:27:40;33.60;;;14.65;;
63653;SDS011;49809;47.418;19.080;2024-03-06T04:31:16;31.45;;;14.52;;
63653;SDS011;49809;47.418;19.080;2024-03-06T04:34:28;35.20;;;14.23;;
63653;SDS011;49809;47.418;19.080;2024-03-06T04:37:36;35.08;;;14.55;;
63653;SDS011;49809;47.418;19.080;2024-03-06T04:43:50;33.13;;;13.62;;
63653;SDS011;49809;47.418;19.080;2024-03-06T04:46:54;36.45;;;13.95;;
63653;SDS011;49809;47.418;19.080;2024-03-06T04:50:18;36.03;;;14.32;;
63653;SDS011;49809;47.418;19.080;2024-03-06T04:53:50;30.42;;;13.52;;
63653;SDS011;49809;47.418;19.080;2024-03-06T04:57:18;36.15;;;14.50;;
63653;SDS011;49809;47.418;19.080;2024-03-06T05:00:57;32.92;;;14.02;;
63653;SDS011;49809;47.418;19.080;2024-03-06T05:07:58;33.78;;;14.18;;
63653;SDS011;49809;47.418;19.080;2024-03-06T05:11:37;37.92;;;14.55;;
63653;SDS011;49809;47.418;19.080;2024-03-06T05:15:01;35.58;;;14.30;;
63653;SDS011;49809;47.418;19.080;2024-03-06T05:18:22;30.23;;;13.62;;
63653;SDS011;49809;47.418;19.080;2024-03-06T05:21:50;35.58;;;13.60;;
63653;SDS011;49809;47.418;19.080;2024-03-06T05:25:14;38.42;;;15.18;;
63653;SDS011;49809;47.418;19.080;2024-03-06T05:28:42;37.03;;;14.35;;
63653;SDS011;49809;47.418;19.080;2024-03-06T05:32:05;33.00;;;14.07;;
63653;SDS011;49809;47.418;19.080;2024-03-06T05:35:29;35.45;;;14.27;;
63653;SDS011;49809;47.418;19.080;2024-03-06T05:38:49;40.78;;;15.38;;
63653;SDS011;49809;47.418;19.080;2024-03-06T05:42:31;30.77;;;13.60;;
63653;SDS011;49809;47.418;19.080;2024-03-06T05:46:14;34.53;;;15.30;;
63653;SDS011;49809;47.418;19.080;2024-03-06T05:49:56;41.28;;;15.20;;
63653;SDS011;49809;47.418;19.080;2024-03-06T05:53:16;40.80;;;15.68;;
63653;SDS011;49809;47.418;19.080;2024-03-06T05:56:44;36.95;;;15.32;;
63653;SDS011;49809;47.418;19.080;2024-03-06T06:00:06;40.80;;;15.70;;
63653;SDS011;49809;47.418;19.080;2024-03-06T06:03:17;35.00;;;16.00;;
63653;SDS011;49809;47.418;19.080;2024-03-06T06:06:23;46.22;;;17.90;;
63653;SDS011;49809;47.418;19.080;2024-03-06T06:09:32;37.72;;;16.80;;
63653;SDS011;49809;47.418;19.080;2024-03-06T06:12:38;41.50;;;17.10;;
63653;SDS011;49809;47.418;19.080;2024-03-06T06:15:52;44.08;;;16.95;;
63653;SDS011;49809;47.418;19.080;2024-03-06T06:19:39;44.35;;;17.87;;
63653;SDS011;49809;47.418;19.080;2024-03-06T06:23:27;43.87;;;17.62;;
63653;SDS011;49809;47.418;19.080;2024-03-06T06:26:31;43.90;;;18.00;;
63653;SDS011;49809;47.418;19.080;2024-03-06T06:29:43;51.47;;;18.95;;
63653;SDS011;49809;47.418;19.080;2024-03-06T06:32:49;41.35;;;18.27;;
63653;SDS011;49809;47.418;19.080;2024-03-06T06:35:55;47.17;;;19.12;;
63653;SDS011;49809;47.418;19.080;2024-03-06T06:38:57;46.17;;;18.15;;
63653;SDS011;49809;47.418;19.080;2024-03-06T06:42:08;43.53;;;18.37;;
63653;SDS011;49809;47.418;19.080;2024-03-06T06:45:16;39.30;;;16.95;;
63653;SDS011;49809;47.418;19.080;2024-03-06T06:48:22;40.45;;;17.65;;
63653;SDS011;49809;47.418;19.080;2024-03-06T06:51:25;44.03;;;18.00;;
63653;SDS011;49809;47.418;19.080;2024-03-06T06:54:35;40.30;;;17.40;;
63653;SDS011;49809;47.418;19.080;2024-03-06T06:57:40;39.50;;;16.30;;
63653;SDS011;49809;47.418;19.080;2024-03-06T07:00:45;39.40;;;16.67;;
63653;SDS011;49809;47.418;19.080;2024-03-06T07:03:49;38.90;;;17.65;;
63653;SDS011;49809;47.418;19.080;2024-03-06T07:06:56;34.38;;;16.95;;
63653;SDS011;49809;47.418;19.080;2024-03-06T07:09:58;35.30;;;15.70;;
63653;SDS011;49809;47.418;19.080;2024-03-06T07:13:04;41.17;;;17.33;;
63653;SDS011;49809;47.418;19.080;2024-03-06T07:16:10;34.20;;;16.30;;
63653;SDS011;49809;47.418;19.080;2024-03-06T07:19:16;36.60;;;15.95;;
63653;SDS011;49809;47.418;19.080;2024-03-06T07:22:20;34.80;;;16.20;;
63653;SDS011;49809;47.418;19.080;2024-03-06T07:25:38;40.33;;;16.98;;
63653;SDS011;49809;47.418;19.080;2024-03-06T07:28:42;41.85;;;16.40;;
63653;SDS011;49809;47.418;19.080;2024-03-06T07:31:49;34.83;;;15.98;;
63653;SDS011;49809;47.418;19.080;2024-03-06T07:34:54;30.75;;;15.82;;
63653;SDS011;49809;47.418;19.080;2024-03-06T07:37:57;30.60;;;14.90;;
63653;SDS011;49809;47.418;19.080;2024-03-06T07:41:05;32.30;;;16.40;;
63653;SDS011;49809;47.418;19.080;2024-03-06T07:44:09;31.95;;;16.42;;
63653;SDS011;49809;47.418;19.080;2024-03-06T07:47:19;34.92;;;16.35;;
63653;SDS011;49809;47.418;19.080;2024-03-06T07:50:27;33.67;;;16.37;;
63653;SDS011;49809;47.418;19.080;2024-03-06T07:53:34;30.92;;;16.27;;
63653;SDS011;49809;47.418;19.080;2024-03-06T07:56:39;35.60;;;16.45;;
63653;SDS011;49809;47.418;19.080;2024-03-06T07:59:47;33.03;;;16.75;;
63653;SDS011;49809;47.418;19.080;2024-03-06T08:03:13;35.17;;;16.42;;
63653;SDS011;49809;47.418;19.080;2024-03-06T08:06:56;30.48;;;16.10;;
63653;SDS011;49809;47.418;19.080;2024-03-06T08:10:39;32.65;;;15.80;;
63653;SDS011;49809;47.418;19.080;2024-03-06T08:14:05;32.95;;;14.82;;
63653;SDS011;49809;47.418;19.080;2024-03-06T08:17:44;30.33;;;14.98;;
63653;SDS011;49809;47.418;19.080;2024-03-06T08:21:20;25.55;;;13.18;;
63653;SDS011;49809;47.418;19.080;2024-03-06T08:24:51;23.05;;;13.07;;
63653;SDS011;49809;47.418;19.080;2024-03-06T08:28:26;29.95;;;13.68;;
63653;SDS011;49809;47.418;19.080;2024-03-06T08:31:30;24.52;;;13.60;;
63653;SDS011;49809;47.418;19.080;2024-03-06T08:34:37;28.42;;;13.82;;
63653;SDS011;49809;47.418;19.080;2024-03-06T08:37:42;25.05;;;13.32;;
63653;SDS011;49809;47.418;19.080;2024-03-06T08:40:46;24.23;;;12.77;;
63653;SDS011;49809;47.418;19.080;2024-03-06T08:43:49;26.30;;;13.38;;
63653;SDS011;49809;47.418;19.080;2024-03-06T08:46:52;24.60;;;12.98;;
63653;SDS011;49809;47.418;19.080;2024-03-06T08:49:58;24.37;;;13.73;;
63653;SDS011;49809;47.418;19.080;2024-03-06T08:53:06;31.10;;;14.05;;
63653;SDS011;49809;47.418;19.080;2024-03-06T08:56:09;29.02;;;13.90;;
63653;SDS011;49809;47.418;19.080;2024-03-06T08:59:15;25.67;;;13.98;;
63653;SDS011;49809;47.418;19.080;2024-03-06T09:02:41;25.48;;;13.65;;
63653;SDS011;49809;47.418;19.080;2024-03-06T09:06:21;24.02;;;13.15;;
63653;SDS011;49809;47.418;19.080;2024-03-06T09:09:40;27.17;;;12.82;;
63653;SDS011;49809;47.418;19.080;2024-03-06T09:13:28;25.23;;;13.30;;
63653;SDS011;49809;47.418;19.080;2024-03-06T09:16:57;22.02;;;13.27;;
63653;SDS011;49809;47.418;19.080;2024-03-06T09:20:18;24.83;;;11.98;;
63653;SDS011;49809;47.418;19.080;2024-03-06T09:23:44;20.52;;;11.12;;
63653;SDS011;49809;47.418;19.080;2024-03-06T09:27:27;20.45;;;11.95;;
63653;SDS011;49809;47.418;19.080;2024-03-06T09:31:10;16.20;;;9.77;;
63653;SDS011;49809;47.418;19.080;2024-03-06T09:34:53;19.17;;;9.70;;
63653;SDS011;49809;47.418;19.080;2024-03-06T09:38:11;17.90;;;10.25;;
63653;SDS011;49809;47.418;19.080;2024-03-06T09:41:44;20.58;;;11.27;;
63653;SDS011;49809;47.418;19.080;2024-03-06T09:45:29;23.27;;;10.27;;
63653;SDS011;49809;47.418;19.080;2024-03-06T09:49:05;17.48;;;9.88;;
63653;SDS011;49809;47.418;19.080;2024-03-06T09:52:16;17.48;;;10.18;;
63653;SDS011;49809;47.418;19.080;2024-03-06T09:55:38;20.40;;;10.25;;
63653;SDS011;49809;47.418;19.080;2024-03-06T09:58:43;16.85;;;9.98;;
63653;SDS011;49809;47.418;19.080;2024-03-06T10:01:56;16.90;;;10.80;;
63653;SDS011;49809;47.418;19.080;2024-03-06T10:05:05;17.87;;;9.95;;
63653;SDS011;49809;47.418;19.080;2024-03-06T10:11:49;16.87;;;10.90;;
63653;SDS011;49809;47.418;19.080;2024-03-06T10:14:52;18.00;;;10.95;;
63653;SDS011;49809;47.418;19.080;2024-03-06T10:18:14;20.00;;;12.15;;
63653;SDS011;49809;47.418;19.080;2024-03-06T10:21:28;22.25;;;13.38;;
63653;SDS011;49809;47.418;19.080;2024-03-06T10:24:34;23.25;;;13.38;;
63653;SDS011;49809;47.418;19.080;2024-03-06T10:27:37;23.00;;;13.15;;
63653;SDS011;49809;47.418;19.080;2024-03-06T10:30:41;20.02;;;12.43;;
63653;SDS011;49809;47.418;19.080;2024-03-06T10:34:10;25.95;;;12.10;;
63653;SDS011;49809;47.418;19.080;2024-03-06T10:37:36;16.53;;;11.17;;
63653;SDS011;49809;47.418;19.080;2024-03-06T10:40:43;17.15;;;10.95;;
63653;SDS011;49809;47.418;19.080;2024-03-06T10:44:11;16.27;;;11.07;;
63653;SDS011;49809;47.418;19.080;2024-03-06T10:47:18;17.40;;;10.95;;
63653;SDS011;49809;47.418;19.080;2024-03-06T10:50:25;17.23;;;11.18;;
63653;SDS011;49809;47.418;19.080;2024-03-06T10:53:30;17.33;;;11.25;;
63653;SDS011;49809;47.418;19.080;2024-03-06T10:56:38;17.77;;;11.70;;
63653;SDS011;49809;47.418;19.080;2024-03-06T10:59:45;18.52;;;11.65;;
63653;SDS011;49809;47.418;19.080;2024-03-06T11:02:52;18.12;;;11.05;;
63653;SDS011;49809;47.418;19.080;2024-03-06T11:06:04;20.98;;;12.00;;
63653;SDS011;49809;47.418;19.080;2024-03-06T11:09:10;19.12;;;10.40;;
63653;SDS011;49809;47.418;19.080;2024-03-06T11:12:35;19.00;;;10.80;;
63653;SDS011;49809;47.418;19.080;2024-03-06T11:15:42;22.33;;;10.90;;
63653;SDS011;49809;47.418;19.080;2024-03-06T11:18:47;18.30;;;11.05;;
63653;SDS011;49809;47.418;19.080;2024-03-06T11:21:54;20.52;;;12.07;;
63653;SDS011;49809;47.418;19.080;2024-03-06T11:25:02;19.58;;;11.12;;
63653;SDS011;49809;47.418;19.080;2024-03-06T11:28:27;21.15;;;10.38;;
63653;SDS011;49809;47.418;19.080;2024-03-06T11:31:38;17.08;;;10.00;;
63653;SDS011;49809;47.418;19.080;2024-03-06T11:34:44;14.43;;;9.33;;
63653;SDS011;49809;47.418;19.080;2024-03-06T11:37:47;14.60;;;8.98;;
63653;SDS011;49809;47.418;19.080;2024-03-06T11:40:50;16.33;;;9.20;;
63653;SDS011;49809;47.418;19.080;2024-03-06T11:44:02;17.65;;;9.20;;
63653;SDS011;49809;47.418;19.080;2024-03-06T11:47:11;14.65;;;9.02;;
63653;SDS011;49809;47.418;19.080;2024-03-06T11:50:16;15.80;;;9.07;;
63653;SDS011;49809;47.418;19.080;2024-03-06T11:53:23;14.38;;;9.45;;
63653;SDS011;49809;47.418;19.080;2024-03-06T11:56:28;14.38;;;8.80;;
63653;SDS011;49809;47.418;19.080;2024-03-06T11:59:32;14.50;;;9.02;;
63653;SDS011;49809;47.418;19.080;2024-03-06T12:02:36;17.48;;;10.45;;
63653;SDS011;49809;47.418;19.080;2024-03-06T12:05:40;16.83;;;9.90;;
63653;SDS011;49809;47.418;19.080;2024-03-06T12:08:43;18.70;;;9.40;;
63653;SDS011;49809;47.418;19.080;2024-03-06T12:12:07;17.08;;;8.48;;
63653;SDS011;49809;47.418;19.080;2024-03-06T12:15:11;16.55;;;9.25;;
63653;SDS011;49809;47.418;19.080;2024-03-06T12:18:17;14.25;;;8.38;;
63653;SDS011;49809;47.418;19.080;2024-03-06T12:21:21;17.02;;;9.95;;
63653;SDS011;49809;47.418;19.080;2024-03-06T12:24:58;21.10;;;9.70;;
63653;SDS011;49809;47.418;19.080;2024-03-06T12:28:06;16.98;;;9.77;;
63653;SDS011;49809;47.418;19.080;2024-03-06T12:31:12;15.18;;;9.10;;
63653;SDS011;49809;47.418;19.080;2024-03-06T12:34:17;20.52;;;9.38;;
63653;SDS011;49809;47.418;19.080;2024-03-06T12:37:20;15.73;;;9.70;;
63653;SDS011;49809;47.418;19.080;2024-03-06T12:40:38;17.05;;;9.52;;
63653;SDS011;49809;47.418;19.080;2024-03-06T12:43:41;16.33;;;9.75;;
63653;SDS011;49809;47.418;19.080;2024-03-06T12:46:44;17.55;;;9.27;;
63653;SDS011;49809;47.418;19.080;2024-03-06T12:49:48;17.37;;;9.60;;
63653;SDS011;49809;47.418;19.080;2024-03-06T12:52:56;15.68;;;9.25;;
63653;SDS011;49809;47.418;19.080;2024-03-06T12:56:03;14.55;;;9.55;;
63653;SDS011;49809;47.418;19.080;2024-03-06T12:59:29;16.05;;;9.48;;
63653;SDS011;49809;47.418;19.080;2024-03-06T13:02:38;14.93;;;9.35;;
63653;SDS011;49809;47.418;19.080;2024-03-06T13:05:41;18.73;;;9.52;;
63653;SDS011;49809;47.418;19.080;2024-03-06T13:08:48;15.88;;;8.45;;
63653;SDS011;49809;47.418;19.080;2024-03-06T13:11:50;14.20;;;8.23;;
63653;SDS011;49809;47.418;19.080;2024-03-06T13:14:55;14.18;;;8.57;;
63653;SDS011;49809;47.418;19.080;2024-03-06T13:18:00;16.90;;;8.00;;
63653;SDS011;49809;47.418;19.080;2024-03-06T13:21:28;11.50;;;7.18;;
63653;SDS011;49809;47.418;19.080;2024-03-06T13:24:51;14.27;;;8.00;;
63653;SDS011;49809;47.418;19.080;2024-03-06T13:28:17;12.07;;;7.40;;
63653;SDS011;49809;47.418;19.080;2024-03-06T13:31:22;12.88;;;8.18;;
63653;SDS011;49809;47.418;19.080;2024-03-06T13:34:32;12.37;;;7.72;;
63653;SDS011;49809;47.418;19.080;2024-03-06T13:37:35;14.65;;;8.23;;
63653;SDS011;49809;47.418;19.080;2024-03-06T13:40:38;15.10;;;8.38;;
63653;SDS011;49809;47.418;19.080;2024-03-06T13:43:45;12.93;;;8.48;;
63653;SDS011;49809;47.418;19.080;2024-03-06T13:46:48;18.48;;;8.15;;
63653;SDS011;49809;47.418;19.080;2024-03-06T13:49:51;16.10;;;8.50;;
63653;SDS011;49809;47.418;19.080;2024-03-06T13:52:54;13.15;;;8.80;;
63653;SDS011;49809;47.418;19.080;2024-03-06T13:55:57;14.15;;;8.15;;
63653;SDS011;49809;47.418;19.080;2024-03-06T13:59:01;14.05;;;8.70;;
63653;SDS011;49809;47.418;19.080;2024-03-06T14:02:05;14.80;;;8.68;;
63653;SDS011;49809;47.418;19.080;2024-03-06T14:05:10;16.13;;;9.00;;
63653;SDS011;49809;47.418;19.080;2024-03-06T14:08:23;15.52;;;8.50;;
63653;SDS011;49809;47.418;19.080;2024-03-06T14:11:30;16.60;;;8.25;;
63653;SDS011;49809;47.418;19.080;2024-03-06T14:14:55;16.20;;;8.05;;
63653;SDS011;49809;47.418;19.080;2024-03-06T14:17:58;12.30;;;7.45;;
63653;SDS011;49809;47.418;19.080;2024-03-06T14:21:23;8.55;;;5.32;;
63653;SDS011;49809;47.418;19.080;2024-03-06T14:24:27;11.73;;;3.95;;
63653;SDS011;49809;47.418;19.080;2024-03-06T14:27:31;6.93;;;2.95;;
63653;SDS011;49809;47.418;19.080;2024-03-06T14:30:38;8.77;;;3.58;;
63653;SDS011;49809;47.418;19.080;2024-03-06T14:33:46;15.48;;;4.37;;
63653;SDS011;49809;47.418;19.080;2024-03-06T14:39:54;5.82;;;2.72;;
63653;SDS011;49809;47.418;19.080;2024-03-06T14:42:59;5.05;;;2.90;;
63653;SDS011;49809;47.418;19.080;2024-03-06T14:46:06;14.20;;;5.55;;
63653;SDS011;49809;47.418;19.080;2024-03-06T14:49:13;173.93;;;57.72;;
63653;SDS011;49809;47.418;19.080;2024-03-06T14:52:19;57.92;;;20.92;;
63653;SDS011;49809;47.418;19.080;2024-03-06T14:55:26;33.55;;;12.27;;
63653;SDS011;49809;47.418;19.080;2024-03-06T14:58:31;10.07;;;5.00;;
63653;SDS011;49809;47.418;19.080;2024-03-06T15:01:34;10.63;;;4.90;;
63653;SDS011;49809;47.418;19.080;2024-03-06T15:04:41;8.25;;;4.50;;
63653;SDS011;49809;47.418;19.080;2024-03-06T15:07:44;9.00;;;4.22;;
63653;SDS011;49809;47.418;19.080;2024-03-06T15:10:51;8.13;;;4.85;;
63653;SDS011;49809;47.418;19.080;2024-03-06T15:13:56;9.13;;;5.30;;
63653;SDS011;49809;47.418;19.080;2024-03-06T15:16:59;11.85;;;5.65;;
63653;SDS011;49809;47.418;19.080;2024-03-06T15:20:07;12.57;;;6.40;;
63653;SDS011;49809;47.418;19.080;2024-03-06T15:23:15;15.32;;;7.15;;
63653;SDS011;49809;47.418;19.080;2024-03-06T15:26:21;12.90;;;7.15;;
63653;SDS011;49809;47.418;19.080;2024-03-06T15:29:27;16.85;;;8.15;;
63653;SDS011;49809;47.418;19.080;2024-03-06T15:32:36;14.77;;;8.25;;
63653;SDS011;49809;47.418;19.080;2024-03-06T15:38:44;16.15;;;8.30;;
63653;SDS011;49809;47.418;19.080;2024-03-06T15:41:48;21.65;;;9.77;;
63653;SDS011;49809;47.418;19.080;2024-03-06T15:44:54;25.87;;;10.83;;
63653;SDS011;49809;47.418;19.080;2024-03-06T15:47:57;23.67;;;9.35;;
63653;SDS011;49809;47.418;19.080;2024-03-06T15:51:09;17.90;;;9.73;;
63653;SDS011;49809;47.418;19.080;2024-03-06T15:54:12;17.33;;;9.40;;
63653;SDS011;49809;47.418;19.080;2024-03-06T15:57:18;20.30;;;11.95;;
63653;SDS011;49809;47.418;19.080;2024-03-06T16:00:24;15.05;;;8.35;;
63653;SDS011;49809;47.418;19.080;2024-03-06T16:03:28;11.52;;;6.55;;
63653;SDS011;49809;47.418;19.080;2024-03-06T16:06:35;12.52;;;7.53;;
63653;SDS011;49809;47.418;19.080;2024-03-06T16:09:45;12.65;;;7.05;;
63653;SDS011;49809;47.418;19.080;2024-03-06T16:12:48;10.73;;;6.68;;
63653;SDS011;49809;47.418;19.080;2024-03-06T16:15:53;11.25;;;6.35;;
63653;SDS011;49809;47.418;19.080;2024-03-06T16:18:56;11.32;;;6.03;;
63653;SDS011;49809;47.418;19.080;2024-03-06T16:22:00;11.20;;;6.05;;
63653;SDS011;49809;47.418;19.080;2024-03-06T16:25:07;10.05;;;5.70;;
63653;SDS011;49809;47.418;19.080;2024-03-06T16:28:13;8.80;;;5.70;;
63653;SDS011;49809;47.418;19.080;2024-03-06T16:31:36;14.20;;;8.05;;
63653;SDS011;49809;47.418;19.080;2024-03-06T16:35:00;10.82;;;5.87;;
63653;SDS011;49809;47.418;19.080;2024-03-06T16:38:05;11.15;;;6.57;;
63653;SDS011;49809;47.418;19.080;2024-03-06T16:41:12;8.93;;;5.03;;
63653;SDS011;49809;47.418;19.080;2024-03-06T16:44:15;8.20;;;4.78;;
63653;SDS011;49809;47.418;19.080;2024-03-06T16:47:18;11.85;;;6.50;;
63653;SDS011;49809;47.418;19.080;2024-03-06T16:50:24;10.27;;;5.45;;
63653;SDS011;49809;47.418;19.080;2024-03-06T16:53:28;10.10;;;5.40;;
63653;SDS011;49809;47.418;19.080;2024-03-06T16:56:36;11.27;;;6.65;;
63653;SDS011;49809;47.418;19.080;2024-03-06T16:59:48;9.40;;;6.78;;
63653;SDS011;49809;47.418;19.080;2024-03-06T17:02:51;25.00;;;6.60;;
63653;SDS011;49809;47.418;19.080;2024-03-06T17:05:55;15.13;;;6.05;;
63653;SDS011;49809;47.418;19.080;2024-03-06T17:09:21;15.85;;;5.65;;
63653;SDS011;49809;47.418;19.080;2024-03-06T17:12:55;13.27;;;6.93;;
63653;SDS011;49809;47.418;19.080;2024-03-06T17:16:10;14.05;;;7.87;;
63653;SDS011;49809;47.418;19.080;2024-03-06T17:22:37;11.20;;;5.87;;
63653;SDS011;49809;47.418;19.080;2024-03-06T17:25:40;10.15;;;6.05;;
63653;SDS011;49809;47.418;19.080;2024-03-06T17:29:10;11.45;;;5.90;;
63653;SDS011;49809;47.418;19.080;2024-03-06T17:32:46;11.52;;;6.10;;
63653;SDS011;49809;47.418;19.080;2024-03-06T17:42:56;15.75;;;9.32;;
63653;SDS011;49809;47.418;19.080;2024-03-06T17:45:59;17.80;;;9.63;;
63653;SDS011;49809;47.418;19.080;2024-03-06T17:49:04;14.82;;;9.25;;
63653;SDS011;49809;47.418;19.080;2024-03-06T17:52:07;24.10;;;15.93;;
63653;SDS011;49809;47.418;19.080;2024-03-06T17:55:11;22.70;;;14.90;;
63653;SDS011;49809;47.418;19.080;2024-03-06T17:58:14;19.80;;;12.18;;
63653;SDS011;49809;47.418;19.080;2024-03-06T18:01:18;19.37;;;10.70;;
63653;SDS011;49809;47.418;19.080;2024-03-06T18:04:28;18.55;;;11.12;;
63653;SDS011;49809;47.418;19.080;2024-03-06T18:07:31;22.35;;;12.02;;
63653;SDS011;49809;47.418;19.080;2024-03-06T18:10:37;18.30;;;10.55;;
63653;SDS011;49809;47.418;19.080;2024-03-06T18:13:42;22.52;;;11.95;;
63653;SDS011;49809;47.418;19.080;2024-03-06T18:16:50;20.80;;;12.65;;
63653;SDS011;49809;47.418;19.080;2024-03-06T18:19:55;19.02;;;10.80;;
63653;SDS011;49809;47.418;19.080;2024-03-06T18:23:00;23.27;;;10.65;;
63653;SDS011;49809;47.418;19.080;2024-03-06T18:26:08;18.73;;;10.68;;
63653;SDS011;49809;47.418;19.080;2024-03-06T18:29:16;20.80;;;11.40;;
63653;SDS011;49809;47.418;19.080;2024-03-06T18:32:19;22.05;;;11.65;;
63653;SDS011;49809;47.418;19.080;2024-03-06T18:35:25;24.25;;;13.15;;
63653;SDS011;49809;47.418;19.080;2024-03-06T18:38:29;20.35;;;11.27;;
63653;SDS011;49809;47.418;19.080;2024-03-06T18:41:35;16.83;;;10.05;;
63653;SDS011;49809;47.418;19.080;2024-03-06T18:44:38;18.10;;;9.35;;
63653;SDS011;49809;47.418;19.080;2024-03-06T18:47:45;16.90;;;10.35;;
63653;SDS011;49809;47.418;19.080;2024-03-06T18:50:55;19.52;;;10.55;;
63653;SDS011;49809;47.418;19.080;2024-03-06T18:54:01;19.20;;;11.12;;
63653;SDS011;49809;47.418;19.080;2024-03-06T18:57:06;16.90;;;10.88;;
63653;SDS011;49809;47.418;19.080;2024-03-06T19:00:12;18.05;;;11.43;;
63653;SDS011;49809;47.418;19.080;2024-03-06T19:03:16;18.12;;;9.85;;